createdAt,value
2023-01-18T00:00:32.708Z,3.17
2023-01-18T00:03:03.260Z,3.13
2023-01-18T00:05:31.149Z,3.21
2023-01-18T00:08:00.361Z,3.17
2023-01-18T00:10:28.227Z,3.11
2023-01-18T00:12:56.574Z,3.07
2023-01-18T00:15:24.621Z,3.06
2023-01-18T00:17:52.549Z,3.08
2023-01-18T00:20:23.791Z,3.05
2023-01-18T00:22:52.947Z,3.11
2023-01-18T00:25:23.965Z,3.13
2023-01-18T00:27:53.500Z,3.04
2023-01-18T00:30:23.603Z,3.03
2023-01-18T00:32:55.284Z,3.02
2023-01-18T00:35:23.549Z,3.03
2023-01-18T00:37:52.776Z,3.07
2023-01-18T00:40:23.567Z,3.04
2023-01-18T00:43:08.820Z,3.04
2023-01-18T00:45:36.703Z,3.03
2023-01-18T00:48:04.548Z,3.03
2023-01-18T00:50:32.338Z,2.89
2023-01-18T00:53:00.636Z,2.95
2023-01-18T00:55:29.885Z,2.94
2023-01-18T00:57:57.589Z,2.93
2023-01-18T01:00:27.023Z,2.96
2023-01-18T01:02:55.085Z,2.94
2023-01-18T01:05:53.809Z,2.89
2023-01-18T01:08:23.514Z,2.92
2023-01-18T01:11:04.216Z,2.93
2023-01-18T01:13:49.695Z,2.96
2023-01-18T01:16:34.911Z,2.88
2023-01-18T01:19:20.047Z,2.83
2023-01-18T01:22:05.975Z,2.89
2023-01-18T01:24:51.065Z,2.88
2023-01-18T01:27:20.190Z,2.91
2023-01-18T01:29:47.909Z,2.86
2023-01-18T01:32:15.682Z,2.88
2023-01-18T01:34:43.454Z,2.89
2023-01-18T01:37:11.173Z,2.71
2023-01-18T01:39:38.927Z,2.62
2023-01-18T01:42:06.786Z,2.55
2023-01-18T01:44:49.630Z,2.70
2023-01-18T01:47:38.259Z,2.76
2023-01-18T01:50:13.035Z,2.79
2023-01-18T01:52:42.929Z,2.81
2023-01-18T01:55:16.860Z,2.82
2023-01-18T01:57:49.170Z,2.84
2023-01-18T02:00:20.797Z,2.83
2023-01-18T02:02:52.090Z,2.74
2023-01-18T02:05:20.496Z,2.54
2023-01-18T02:07:49.098Z,2.70
2023-01-18T02:10:17.322Z,2.79
2023-01-18T02:12:48.320Z,2.78
2023-01-18T02:15:17.020Z,2.74
2023-01-18T02:18:12.204Z,2.77
2023-01-18T02:21:03.109Z,2.76
2023-01-18T02:24:02.145Z,2.75
2023-01-18T02:26:52.687Z,2.72
2023-01-18T02:29:28.257Z,2.72
2023-01-18T02:32:08.779Z,2.74
2023-01-18T02:34:41.845Z,2.72
2023-01-18T02:37:18.351Z,2.73
2023-01-18T02:39:58.889Z,2.68
2023-01-18T02:42:46.677Z,2.71
2023-01-18T02:45:42.963Z,2.70
2023-01-18T02:48:11.902Z,2.66
2023-01-18T02:50:39.649Z,2.69
2023-01-18T02:53:07.413Z,2.70
2023-01-18T02:55:40.548Z,2.71
2023-01-18T02:58:12.602Z,2.65
2023-01-18T03:00:47.062Z,2.67
2023-01-18T03:03:18.357Z,2.64
2023-01-18T03:05:49.012Z,2.66
2023-01-18T03:08:22.821Z,2.61
2023-01-18T03:10:58.883Z,2.55
2023-01-18T03:13:37.791Z,2.62
2023-01-18T03:16:11.084Z,2.62
2023-01-18T03:19:01.096Z,2.65
2023-01-18T03:21:43.453Z,2.63
2023-01-18T03:24:11.526Z,2.59
2023-01-18T03:26:44.375Z,2.61
2023-01-18T03:29:32.144Z,2.51
2023-01-18T03:32:21.990Z,2.39
2023-01-18T03:34:54.531Z,2.36
2023-01-18T03:37:28.440Z,2.39
2023-01-18T03:40:00.590Z,2.37
2023-01-18T03:42:32.341Z,2.28
2023-01-18T03:45:07.756Z,2.35
2023-01-18T03:47:36.913Z,2.39
2023-01-18T03:50:05.571Z,2.48
2023-01-18T03:52:41.878Z,2.64
2023-01-18T03:55:16.891Z,2.63
2023-01-18T03:57:50.122Z,2.63
2023-01-18T04:00:19.350Z,2.65
2023-01-18T04:02:50.874Z,2.50
2023-01-18T04:05:19.271Z,2.47
2023-01-18T04:07:47.015Z,2.42
2023-01-18T04:10:15.150Z,2.41
2023-01-18T04:12:42.917Z,2.53
2023-01-18T04:15:11.545Z,2.46
2023-01-18T04:17:39.660Z,2.42
2023-01-18T04:20:10.630Z,2.46
2023-01-18T04:22:38.402Z,2.43
2023-01-18T04:25:06.824Z,2.44
2023-01-18T04:27:34.635Z,2.46
2023-01-18T04:30:02.441Z,2.47
2023-01-18T04:32:30.183Z,2.46
2023-01-18T04:34:57.905Z,2.45
2023-01-18T04:37:30.395Z,2.41
2023-01-18T04:39:58.394Z,2.41
2023-01-18T04:42:26.150Z,2.44
2023-01-18T04:44:54.067Z,2.48
2023-01-18T04:47:21.865Z,2.41
2023-01-18T04:49:49.660Z,2.44
2023-01-18T04:52:19.140Z,2.54
2023-01-18T04:54:48.659Z,2.50
2023-01-18T04:57:16.528Z,2.48
2023-01-18T04:59:45.952Z,2.47
2023-01-18T05:02:15.274Z,2.44
2023-01-18T05:04:44.623Z,2.43
2023-01-18T05:07:12.832Z,2.39
2023-01-18T05:09:40.586Z,2.38
2023-01-18T05:12:09.705Z,2.43
2023-01-18T05:14:37.484Z,2.38
2023-01-18T05:17:05.473Z,2.42
2023-01-18T05:19:33.563Z,2.40
2023-01-18T05:22:01.227Z,2.19
2023-01-18T05:24:30.003Z,2.15
2023-01-18T05:26:58.025Z,2.27
2023-01-18T05:29:27.257Z,2.31
2023-01-18T05:31:55.021Z,2.28
2023-01-18T05:34:22.876Z,2.29
2023-01-18T05:36:50.634Z,2.32
2023-01-18T05:39:18.607Z,2.34
2023-01-18T05:41:46.410Z,2.37
2023-01-18T05:44:14.296Z,2.30
2023-01-18T05:46:43.474Z,2.27
2023-01-18T05:49:11.239Z,2.28
2023-01-18T05:51:39.062Z,2.30
2023-01-18T05:54:07.652Z,2.38
2023-01-18T05:56:35.491Z,2.26
2023-01-18T05:59:03.300Z,2.28
2023-01-18T06:01:31.152Z,2.29
2023-01-18T06:04:00.370Z,2.27
2023-01-18T06:06:28.314Z,2.22
2023-01-18T06:08:56.100Z,2.22
2023-01-18T06:11:23.844Z,2.15
2023-01-18T06:13:52.307Z,2.23
2023-01-18T06:16:20.581Z,2.21
2023-01-18T06:18:48.296Z,2.19
2023-01-18T06:21:17.932Z,2.20
2023-01-18T06:23:45.679Z,2.02
2023-01-18T06:26:13.597Z,2.11
2023-01-18T06:28:41.322Z,2.08
2023-01-18T06:31:10.502Z,2.11
2023-01-18T06:33:38.331Z,2.14
2023-01-18T06:36:06.913Z,2.15
2023-01-18T06:38:36.033Z,2.07
2023-01-18T06:41:03.770Z,2.13
2023-01-18T06:43:31.552Z,2.05
2023-01-18T06:45:59.483Z,2.08
2023-01-18T06:48:27.968Z,2.08
2023-01-18T06:50:57.554Z,2.08
2023-01-18T06:53:25.714Z,2.07
2023-01-18T06:55:56.931Z,2.04
2023-01-18T06:58:25.743Z,2.06
2023-01-18T07:00:55.559Z,2.08
2023-01-18T07:03:23.379Z,2.03
2023-01-18T07:05:51.126Z,2.09
2023-01-18T07:08:21.024Z,2.03
2023-01-18T07:10:49.166Z,2.00
2023-01-18T07:13:18.246Z,2.03
2023-01-18T07:15:46.020Z,2.06
2023-01-18T07:18:13.825Z,2.07
2023-01-18T07:20:41.563Z,2.03
2023-01-18T07:23:09.530Z,2.06
2023-01-18T07:25:37.298Z,2.06
2023-01-18T07:28:05.456Z,2.08
2023-01-18T07:30:34.544Z,2.12
2023-01-18T07:33:02.262Z,2.11
2023-01-18T07:35:30.134Z,2.16
2023-01-18T07:37:57.916Z,2.14
2023-01-18T07:40:25.756Z,2.15
2023-01-18T07:42:58.507Z,2.05
2023-01-18T07:45:26.511Z,2.09
2023-01-18T07:47:55.701Z,2.07
2023-01-18T07:50:23.491Z,2.10
2023-01-18T07:52:51.365Z,2.15
2023-01-18T07:55:21.065Z,2.15
2023-01-18T07:57:48.852Z,2.15
2023-01-18T08:00:17.248Z,2.19
2023-01-18T08:02:45.110Z,2.23
2023-01-18T08:05:14.294Z,2.27
2023-01-18T08:07:42.056Z,2.29
2023-01-18T08:10:10.943Z,2.31
2023-01-18T08:12:38.795Z,2.28
2023-01-18T08:15:07.643Z,2.30
2023-01-18T08:17:35.657Z,2.35
2023-01-18T08:20:04.968Z,2.34
2023-01-18T08:22:34.111Z,2.39
2023-01-18T08:25:02.178Z,2.39
2023-01-18T08:27:29.982Z,2.39
2023-01-18T08:29:57.785Z,2.40
2023-01-18T08:32:25.612Z,2.39
2023-01-18T08:34:53.350Z,2.38
2023-01-18T08:37:23.715Z,2.43
2023-01-18T08:39:52.878Z,2.41
2023-01-18T08:42:20.584Z,2.43
2023-01-18T08:44:49.110Z,2.47
2023-01-18T08:47:18.017Z,2.46
2023-01-18T08:49:46.669Z,2.47
2023-01-18T08:52:15.327Z,2.50
2023-01-18T08:54:43.138Z,2.54
2023-01-18T08:57:12.196Z,2.54
2023-01-18T08:59:39.914Z,2.62
2023-01-18T09:02:07.691Z,2.61
2023-01-18T09:04:35.687Z,2.54
2023-01-18T09:07:03.382Z,2.60
2023-01-18T09:09:31.715Z,2.67
2023-01-18T09:11:59.685Z,2.68
2023-01-18T09:14:28.808Z,2.70
2023-01-18T09:16:56.530Z,2.73
2023-01-18T09:19:24.307Z,2.77
2023-01-18T09:21:52.343Z,2.81
2023-01-18T09:24:20.102Z,2.81
2023-01-18T09:26:51.092Z,2.81
2023-01-18T09:29:19.315Z,2.88
2023-01-18T09:31:49.263Z,2.91
2023-01-18T09:34:19.979Z,3.01
2023-01-18T09:36:50.972Z,3.05
2023-01-18T09:39:18.948Z,3.04
2023-01-18T09:41:53.112Z,3.16
2023-01-18T09:44:25.624Z,3.17
2023-01-18T09:46:58.804Z,3.21
2023-01-18T09:49:36.523Z,3.24
2023-01-18T09:52:19.473Z,3.36
2023-01-18T09:54:56.027Z,3.42
2023-01-18T09:57:40.624Z,3.47
2023-01-18T10:00:19.779Z,3.47
2023-01-18T10:02:53.137Z,3.53
2023-01-18T10:05:24.273Z,3.56
2023-01-18T10:08:02.671Z,3.57
2023-01-18T10:10:35.030Z,3.61
2023-01-18T10:13:28.922Z,3.64
2023-01-18T10:15:56.888Z,3.71
2023-01-18T10:18:26.526Z,3.76
2023-01-18T10:20:58.794Z,3.76
2023-01-18T10:23:31.049Z,3.83
2023-01-18T10:26:03.833Z,3.81
2023-01-18T10:28:45.170Z,3.85
2023-01-18T10:31:25.398Z,3.91
2023-01-18T10:33:58.181Z,3.91
2023-01-18T10:36:32.415Z,3.91
2023-01-18T10:39:04.256Z,3.94
2023-01-18T10:41:36.832Z,3.99
2023-01-18T10:44:04.856Z,4.05
2023-01-18T10:46:32.695Z,4.03
2023-01-18T10:49:02.618Z,4.06
2023-01-18T10:51:36.018Z,4.04
2023-01-18T10:54:23.018Z,4.08
2023-01-18T10:56:50.734Z,4.14
2023-01-18T10:59:29.824Z,4.23
2023-01-18T11:01:58.973Z,4.30
2023-01-18T11:04:30.662Z,4.27
2023-01-18T11:07:01.648Z,4.35
2023-01-18T11:09:41.949Z,4.40
2023-01-18T11:12:37.278Z,4.44
2023-01-18T11:15:25.131Z,4.55
2023-01-18T11:18:09.801Z,4.68
2023-01-18T11:20:47.935Z,4.72
2023-01-18T11:23:21.034Z,4.78
2023-01-18T11:25:53.769Z,4.90
2023-01-18T11:28:23.431Z,4.94
2023-01-18T11:30:55.273Z,4.94
2023-01-18T11:33:25.867Z,4.95
2023-01-18T11:35:57.853Z,4.90
2023-01-18T11:38:31.751Z,5.01
2023-01-18T11:41:08.194Z,5.13
2023-01-18T11:43:39.313Z,5.22
2023-01-18T11:46:23.602Z,5.27
2023-01-18T11:48:56.854Z,5.25
2023-01-18T11:51:32.817Z,5.25
2023-01-18T11:54:09.045Z,5.29
2023-01-18T11:56:43.121Z,5.31
2023-01-18T11:59:15.637Z,5.40
2023-01-18T12:01:57.173Z,5.55
2023-01-18T12:04:37.893Z,5.64
2023-01-18T12:07:24.776Z,5.72
2023-01-18T12:09:54.016Z,6.02
2023-01-18T12:12:37.820Z,6.14
2023-01-18T12:15:28.096Z,5.94
2023-01-18T12:18:18.117Z,6.02
2023-01-18T12:20:58.407Z,5.96
2023-01-18T12:23:49.097Z,6.50
2023-01-18T12:26:31.745Z,6.72
2023-01-18T12:29:13.783Z,6.59
2023-01-18T12:31:58.367Z,6.79
2023-01-18T12:34:35.747Z,6.87
2023-01-18T12:37:29.205Z,6.92
2023-01-18T12:40:17.613Z,6.96
2023-01-18T12:42:57.556Z,6.79
2023-01-18T12:45:37.852Z,6.54
2023-01-18T12:48:17.063Z,6.51
2023-01-18T12:50:47.886Z,6.71
2023-01-18T12:53:24.905Z,6.68
2023-01-18T12:55:56.179Z,6.70
2023-01-18T12:58:27.048Z,6.40
2023-01-18T13:00:59.927Z,6.49
2023-01-18T13:03:34.844Z,6.32
2023-01-18T13:06:04.275Z,6.27
2023-01-18T13:08:39.295Z,6.21
2023-01-18T13:11:14.039Z,6.10
2023-01-18T13:13:44.891Z,6.05
2023-01-18T13:16:23.853Z,5.82
2023-01-18T13:18:59.342Z,5.80
2023-01-18T13:21:38.619Z,5.83
2023-01-18T13:24:16.933Z,5.76
2023-01-18T13:26:46.208Z,5.89
2023-01-18T13:29:24.122Z,6.03
2023-01-18T13:31:52.876Z,6.02
2023-01-18T13:34:29.039Z,6.04
2023-01-18T13:37:12.920Z,6.04
2023-01-18T13:39:48.146Z,5.95
2023-01-18T13:42:34.100Z,6.01
2023-01-18T13:45:15.312Z,5.98
2023-01-18T13:47:48.916Z,5.95
2023-01-18T13:50:47.201Z,5.99
2023-01-18T13:53:26.192Z,5.98
2023-01-18T13:56:27.571Z,6.03
2023-01-18T13:59:23.649Z,6.05
2023-01-18T14:01:52.622Z,6.12
2023-01-18T14:04:26.055Z,6.19
2023-01-18T14:06:55.807Z,6.13
2023-01-18T14:09:35.589Z,6.25
2023-01-18T14:12:04.301Z,6.23
2023-01-18T14:14:36.206Z,6.23
2023-01-18T14:17:16.532Z,6.20
2023-01-18T14:20:07.850Z,6.20
2023-01-18T14:22:52.239Z,6.21
2023-01-18T14:25:34.025Z,6.21
2023-01-18T14:28:09.061Z,6.21
2023-01-18T14:30:41.331Z,6.28
2023-01-18T14:33:15.449Z,6.13
2023-01-18T14:35:52.661Z,6.00
2023-01-18T14:38:21.628Z,5.93
2023-01-18T14:40:52.629Z,5.93
2023-01-18T14:43:26.765Z,5.88
2023-01-18T14:46:00.208Z,5.85
2023-01-18T14:48:31.439Z,5.75
2023-01-18T14:51:00.590Z,5.73
2023-01-18T14:53:30.804Z,5.74
2023-01-18T14:56:04.180Z,5.71
2023-01-18T14:58:37.302Z,5.68
2023-01-18T15:01:09.429Z,5.64
2023-01-18T15:03:37.572Z,5.59
2023-01-18T15:06:13.667Z,5.58
2023-01-18T15:08:43.188Z,5.60
2023-01-18T15:11:12.454Z,5.45
2023-01-18T15:13:47.624Z,5.56
2023-01-18T15:16:21.411Z,5.53
2023-01-18T15:18:50.813Z,5.43
2023-01-18T15:21:25.564Z,5.40
2023-01-18T15:24:00.922Z,5.43
2023-01-18T15:26:36.328Z,5.41
2023-01-18T15:29:16.867Z,5.37
2023-01-18T15:31:52.507Z,5.33
2023-01-18T15:34:29.488Z,5.35
2023-01-18T15:36:59.640Z,5.27
2023-01-18T15:39:28.164Z,5.30
2023-01-18T15:42:04.531Z,5.26
2023-01-18T15:44:40.997Z,5.21
2023-01-18T15:47:18.155Z,5.17
2023-01-18T15:49:48.741Z,5.17
2023-01-18T15:52:17.171Z,5.16
2023-01-18T15:54:44.870Z,5.04
2023-01-18T15:57:20.660Z,5.09
2023-01-18T15:59:49.421Z,5.07
2023-01-18T16:02:21.058Z,5.07
2023-01-18T16:04:48.950Z,5.06
2023-01-18T16:07:38.862Z,4.99
2023-01-18T16:10:27.915Z,4.84
2023-01-18T16:12:57.586Z,4.83
2023-01-18T16:15:27.553Z,4.80
2023-01-18T16:18:12.583Z,4.80
2023-01-18T16:20:43.395Z,4.70
2023-01-18T16:23:21.906Z,4.74
2023-01-18T16:25:53.073Z,4.67
2023-01-18T16:28:23.778Z,4.64
2023-01-18T16:30:53.753Z,4.76
2023-01-18T16:33:23.804Z,4.75
2023-01-18T16:35:54.329Z,4.78
2023-01-18T16:38:28.475Z,4.74
2023-01-18T16:40:56.403Z,4.71
2023-01-18T16:43:28.517Z,4.76
2023-01-18T16:45:58.892Z,4.73
2023-01-18T16:48:30.687Z,4.72
2023-01-18T16:51:00.101Z,4.68
2023-01-18T16:53:28.315Z,4.64
2023-01-18T16:55:57.186Z,4.67
2023-01-18T16:58:26.043Z,4.66
2023-01-18T17:01:00.169Z,4.66
2023-01-18T17:03:29.793Z,4.60
2023-01-18T17:05:57.599Z,4.58
2023-01-18T17:08:25.353Z,4.50
2023-01-18T17:10:54.731Z,4.46
2023-01-18T17:13:23.779Z,4.43
2023-01-18T17:15:53.345Z,4.45
2023-01-18T17:18:24.040Z,4.45
2023-01-18T17:21:02.204Z,4.52
2023-01-18T17:23:29.969Z,4.55
2023-01-18T17:25:58.437Z,4.50
2023-01-18T17:28:27.458Z,4.48
2023-01-18T17:30:55.752Z,4.53
2023-01-18T17:33:25.844Z,4.45
2023-01-18T17:35:55.755Z,4.52
2023-01-18T17:38:28.830Z,4.53
2023-01-18T17:40:58.444Z,4.50
2023-01-18T17:43:33.758Z,4.52
2023-01-18T17:46:03.623Z,4.50
2023-01-18T17:48:31.379Z,4.52
2023-01-18T17:50:59.176Z,4.46
2023-01-18T17:53:28.490Z,4.57
2023-01-18T17:55:56.199Z,4.52
2023-01-18T17:58:24.123Z,4.52
2023-01-18T18:00:52.178Z,4.51
2023-01-18T18:03:20.799Z,4.49
2023-01-18T18:05:48.803Z,4.53
2023-01-18T18:08:38.202Z,4.41
2023-01-18T18:11:07.911Z,4.42
2023-01-18T18:13:35.985Z,4.38
2023-01-18T18:16:03.886Z,4.42
2023-01-18T18:18:31.804Z,4.44
2023-01-18T18:21:00.888Z,4.43
2023-01-18T18:23:31.113Z,4.44
2023-01-18T18:26:00.127Z,4.36
2023-01-18T18:28:29.566Z,4.34
2023-01-18T18:30:58.067Z,4.39
2023-01-18T18:33:26.857Z,4.37
2023-01-18T18:35:54.828Z,4.33
2023-01-18T18:38:23.834Z,4.35
2023-01-18T18:40:53.924Z,4.34
2023-01-18T18:43:24.487Z,4.30
2023-01-18T18:45:53.061Z,4.35
2023-01-18T18:48:20.877Z,4.31
2023-01-18T18:50:48.726Z,4.33
2023-01-18T18:53:18.145Z,4.28
2023-01-18T18:55:47.472Z,4.33
2023-01-18T18:58:18.907Z,4.28
2023-01-18T19:00:46.905Z,4.32
2023-01-18T19:03:14.768Z,4.29
2023-01-18T19:05:43.281Z,4.24
2023-01-18T19:08:10.991Z,4.24
2023-01-18T19:10:39.268Z,4.27
2023-01-18T19:13:07.423Z,4.22
2023-01-18T19:15:36.602Z,4.22
2023-01-18T19:18:04.591Z,4.21
2023-01-18T19:20:33.310Z,4.20
2023-01-18T19:23:01.712Z,4.19
2023-01-18T19:25:29.851Z,4.18
2023-01-18T19:27:57.648Z,4.18
2023-01-18T19:30:25.383Z,4.19
2023-01-18T19:32:54.561Z,4.13
2023-01-18T19:35:22.481Z,4.14
2023-01-18T19:37:51.985Z,4.10
2023-01-18T19:40:20.361Z,4.08
2023-01-18T19:42:54.943Z,4.01
2023-01-18T19:45:28.380Z,4.01
2023-01-18T19:47:59.580Z,4.05
2023-01-18T19:50:29.791Z,4.04
2023-01-18T19:53:12.374Z,3.95
2023-01-18T19:55:40.334Z,4.02
2023-01-18T19:58:10.040Z,4.01
2023-01-18T20:00:41.253Z,4.02
2023-01-18T20:03:14.127Z,4.07
2023-01-18T20:05:44.661Z,4.04
2023-01-18T20:08:12.413Z,4.02
2023-01-18T20:10:40.660Z,4.05
2023-01-18T20:13:10.346Z,4.04
2023-01-18T20:15:42.170Z,4.06
2023-01-18T20:18:11.270Z,4.02
2023-01-18T20:20:39.065Z,3.97
2023-01-18T20:23:06.828Z,3.95
2023-01-18T20:25:34.645Z,3.97
2023-01-18T20:28:02.359Z,3.98
2023-01-18T20:30:30.096Z,3.99
2023-01-18T20:32:58.352Z,3.97
2023-01-18T20:35:28.535Z,4.01
2023-01-18T20:37:56.307Z,3.98
2023-01-18T20:40:24.143Z,3.96
2023-01-18T20:42:51.908Z,3.94
2023-01-18T20:45:19.601Z,4.00
2023-01-18T20:47:47.335Z,3.99
2023-01-18T20:50:15.043Z,3.98
2023-01-18T20:52:44.641Z,4.01
2023-01-18T20:55:14.635Z,3.93
2023-01-18T20:57:42.779Z,4.01
2023-01-18T21:00:12.582Z,3.99
2023-01-18T21:02:41.384Z,3.97
2023-01-18T21:05:09.977Z,4.02
2023-01-18T21:07:39.047Z,4.00
2023-01-18T21:10:10.778Z,4.01
2023-01-18T21:12:38.605Z,4.00
2023-01-18T21:15:13.933Z,4.09
2023-01-18T21:17:44.213Z,4.13
2023-01-18T21:20:12.762Z,4.13
2023-01-18T21:22:43.091Z,4.10
2023-01-18T21:25:12.387Z,4.18
2023-01-18T21:27:43.185Z,4.17
2023-01-18T21:30:12.380Z,4.19
2023-01-18T21:32:43.261Z,4.19
2023-01-18T21:35:11.365Z,4.20
2023-01-18T21:37:41.555Z,4.16
2023-01-18T21:40:10.731Z,4.17
2023-01-18T21:42:57.344Z,4.13
2023-01-18T21:45:42.677Z,4.17
2023-01-18T21:48:10.454Z,4.18
2023-01-18T21:50:58.369Z,4.13
2023-01-18T21:53:44.201Z,4.05
2023-01-18T21:56:12.073Z,4.03
2023-01-18T21:58:58.120Z,4.03
2023-01-18T22:01:29.993Z,3.98
2023-01-18T22:04:15.363Z,3.96
2023-01-18T22:06:43.111Z,4.01
2023-01-18T22:09:10.907Z,4.03
2023-01-18T22:11:38.683Z,4.05
2023-01-18T22:14:09.647Z,4.08
2023-01-18T22:16:38.471Z,4.10
2023-01-18T22:19:07.463Z,4.14
2023-01-18T22:21:35.391Z,4.16
2023-01-18T22:24:04.387Z,4.13
2023-01-18T22:26:32.733Z,4.17
2023-01-18T22:29:01.490Z,4.17
2023-01-18T22:31:30.575Z,4.16
2023-01-18T22:33:58.598Z,4.19
2023-01-18T22:36:26.297Z,4.18
2023-01-18T22:38:54.886Z,4.20
2023-01-18T22:41:24.475Z,4.11
2023-01-18T22:43:52.485Z,4.10
2023-01-18T22:46:21.789Z,4.16
2023-01-18T22:48:51.575Z,4.18
2023-01-18T22:51:21.650Z,4.08
2023-01-18T22:53:50.493Z,4.11
2023-01-18T22:56:19.986Z,4.09
2023-01-18T22:58:48.526Z,4.10
2023-01-18T23:01:18.887Z,4.10
2023-01-18T23:03:46.968Z,4.09
2023-01-18T23:06:16.165Z,4.04
2023-01-18T23:08:43.947Z,4.05
2023-01-18T23:11:13.731Z,4.01
2023-01-18T23:13:42.983Z,4.01
2023-01-18T23:16:33.999Z,3.99
2023-01-18T23:19:01.698Z,3.99
2023-01-18T23:21:30.751Z,3.93
2023-01-18T23:23:58.587Z,3.96
2023-01-18T23:26:26.307Z,4.00
2023-01-18T23:28:53.980Z,4.01
2023-01-18T23:31:21.874Z,4.01
2023-01-18T23:33:49.699Z,3.93
2023-01-18T23:36:17.461Z,3.99
2023-01-18T23:39:04.185Z,4.03
2023-01-18T23:41:49.505Z,3.99
2023-01-18T23:44:34.730Z,4.03
2023-01-18T23:47:20.137Z,4.03
2023-01-18T23:50:05.534Z,4.02
2023-01-18T23:52:50.802Z,3.99
2023-01-18T23:55:20.035Z,4.05
2023-01-18T23:57:47.804Z,4.10
